メインページ
METAR-TAF:

METAR-TAF

空港 :

ダラス / フォートワース, テキサス州, アメリカ合衆国

ダラス・フォートワース国際空港

緯度: 32-53-49N, 経度: 097-01-19W, 海抜: 183m

現時点の気象観測

当レポートは32分前の15:53(UTC)に作成
の風 10kt
気温 8°C
湿度 36%
気圧 1029 hPa
視程: 16.1km
高度25000ftの千切れ雲あり

METAR: KDFW 221553Z 01010KT 10SM BKN250 08/M06 A3038 RMK AO2 SLP286 T00781061

時間: 10:25 (16:25 UTC)

予報

当レポートは1時間3分前の15:22(UTC)に作成
予報は22日の 15時(UTC)から 23日の 18時(UTC)まで有効
の風 14kt
視程: 10km
高度25000ftの雲は散在している
23日の 0300時(UTC)から
変向風 3kt
視程: 10km
晴天
23日の 1500時(UTC)から
の風 6kt
視程: 10km
高度25000ftの雲は散在している

TAF: KDFW 221522Z 2215/2318 36014KT P6SM SCT250 FM230300 VRB03KT P6SM SKC FM231500 18006KT P6SM SCT250

4,000以上の空港の気象観測と天気予報(METAR報とTAF報)

利用可能な観測所は地図上に黄色い丸と赤い丸で示す。

丸の上にカーソルを重ねると観測所名を参照できる。

次にクリックすると気象観測と天気予報を参照できる。

マップの切り替え:黒色「×」印の緑ボタンをクリックして拡大、「-」印の緑ボタンをクリックして縮小、緑色の三角印をクリックして隣りの地図に切り替え


METAR-TAF: